Hovedside
METAR-TAF:

METAR-TAF

Lufthavner :

Røros, Norge

Røros lufthavn

breddegrad: 62-35N, lengdegrad: 011-21E, høyde over havet: 626 m

Gjeldene værobservasjon

Denne rapporten ble laget for 17 minutter siden, klokken 11:50 UTC
Vind 3 kt fra Nord, skiftende mellom Nord-nordvest og Nordøst
Temperatur -8°C
Luftfuktighet 92%
Trykk 990 hPa
Sikt 10 km eller mer
Overskyet i en høyde av 700 ft

METAR: ENRO 151150Z 36003KT 330V040 9999 OVC007 M08/M09 Q0990

Tid: 13:07 (12:07 UTC)

Varsel

Denne rapporten ble laget for 1 time og 7 minutter siden, klokken 11:00 UTC
Varsel gyldig fra 15. klokken 12 UTC til 15. klokken 19 UTC
Vind 5 kt fra skiftende retning
Sikt 10 km eller mer
Brutte skyer i en høyde av 800 ft
Sannsynlighet 30%
fra 15. klokken 12 UTC til 15. klokken 19 UTC
Brutte skyer i en høyde av 1200 ft

TAF: ENRO 151100Z 1512/1519 VRB05KT 9999 BKN008 PROB30 1512/1519 BKN012

Værobservasjoner og værvarsel for over 4000 flyplasser (METAR- og TAF-rapporter).

Tilgjengelige stasjoner er representert av de røde og gule prikkene på kartet.

Hold musepekeren over prikken for å se navnet på stasjonen.

Klikk så for å se værobservasjoner og -varsler.

For å forandre kartet kan du klikke på den grønne knappen med svart kryss for å zoome inn, på den grønne knappen med strek for å zoome ut, eller på de grønne pilene for å se tilstøtende kart.


METAR-TAF: